createdAt,value
2022-12-23T00:00:40.024Z,4.08
2022-12-23T00:03:23.517Z,4.13
2022-12-23T00:05:51.390Z,4.18
2022-12-23T00:08:19.004Z,4.23
2022-12-23T00:10:48.208Z,4.18
2022-12-23T00:13:33.897Z,4.22
2022-12-23T00:16:02.939Z,4.24
2022-12-23T00:18:29.796Z,4.25
2022-12-23T00:21:08.812Z,4.29
2022-12-23T00:23:38.705Z,4.29
2022-12-23T00:26:06.353Z,4.32
2022-12-23T00:28:33.549Z,4.46
2022-12-23T00:31:02.049Z,4.54
2022-12-23T00:33:34.381Z,4.63
2022-12-23T00:36:01.659Z,4.53
2022-12-23T00:38:47.486Z,4.49
2022-12-23T00:41:35.253Z,4.49
2022-12-23T00:44:02.973Z,4.49
2022-12-23T00:46:30.145Z,4.49
2022-12-23T00:49:15.866Z,4.47
2022-12-23T00:51:42.959Z,4.52
2022-12-23T00:54:09.779Z,4.46
2022-12-23T00:56:36.843Z,4.46
2022-12-23T00:59:04.017Z,4.48
2022-12-23T01:01:49.934Z,4.48
2022-12-23T01:04:36.150Z,4.64
2022-12-23T01:07:04.005Z,4.90
2022-12-23T01:09:30.957Z,4.80
2022-12-23T01:11:58.021Z,4.87
2022-12-23T01:14:25.432Z,4.78
2022-12-23T01:16:52.761Z,4.69
2022-12-23T01:19:19.612Z,4.70
2022-12-23T01:21:46.753Z,4.64
2022-12-23T01:24:13.566Z,4.68
2022-12-23T01:26:40.660Z,4.65
2022-12-23T01:29:07.492Z,4.63
2022-12-23T01:31:34.714Z,4.69
2022-12-23T01:34:01.555Z,4.65
2022-12-23T01:36:28.612Z,4.63
2022-12-23T01:38:56.499Z,4.73
2022-12-23T01:41:45.374Z,5.03
2022-12-23T01:44:46.204Z,5.00
2022-12-23T01:47:29.074Z,4.87
2022-12-23T01:50:08.269Z,4.79
2022-12-23T01:52:41.828Z,4.74
2022-12-23T01:55:09.192Z,4.70
2022-12-23T01:57:40.851Z,4.75
2022-12-23T02:00:27.553Z,4.71
2022-12-23T02:03:13.125Z,4.64
2022-12-23T02:05:40.650Z,4.67
2022-12-23T02:08:27.240Z,4.70
2022-12-23T02:11:15.479Z,4.77
2022-12-23T02:14:13.518Z,4.60
2022-12-23T02:16:49.827Z,4.55
2022-12-23T02:19:35.586Z,4.53
2022-12-23T02:22:29.662Z,4.47
2022-12-23T02:25:07.820Z,4.32
2022-12-23T02:28:04.966Z,4.33
2022-12-23T02:31:00.739Z,4.39
2022-12-23T02:33:45.969Z,4.18
2022-12-23T02:36:18.658Z,4.25
2022-12-23T02:38:59.922Z,4.28
2022-12-23T02:41:38.422Z,4.20
2022-12-23T02:44:17.932Z,4.21
2022-12-23T02:46:56.923Z,4.18
2022-12-23T02:49:29.320Z,4.13
2022-12-23T02:51:59.562Z,4.47
2022-12-23T02:54:32.726Z,4.33
2022-12-23T02:57:03.996Z,4.34
2022-12-23T02:59:36.462Z,4.20
2022-12-23T03:02:03.632Z,4.20
2022-12-23T03:04:30.461Z,4.12
2022-12-23T03:07:02.815Z,4.10
2022-12-23T03:10:03.735Z,3.96
2022-12-23T03:12:33.562Z,4.10
2022-12-23T03:15:24.691Z,3.96
2022-12-23T03:18:06.376Z,3.82
2022-12-23T03:20:51.297Z,3.73
2022-12-23T03:23:29.840Z,3.81
2022-12-23T03:26:09.270Z,3.69
2022-12-23T03:29:05.737Z,3.70
2022-12-23T03:31:34.323Z,3.70
2022-12-23T03:34:06.466Z,3.63
2022-12-23T03:36:38.458Z,3.50
2022-12-23T03:39:10.630Z,3.44
2022-12-23T03:41:43.101Z,3.46
2022-12-23T03:44:15.558Z,3.41
2022-12-23T03:46:48.762Z,3.41
2022-12-23T03:49:20.734Z,3.43
2022-12-23T03:52:03.127Z,3.40
2022-12-23T03:54:54.565Z,3.51
2022-12-23T03:57:30.506Z,3.57
2022-12-23T03:59:57.653Z,3.55
2022-12-23T04:02:38.203Z,3.51
2022-12-23T04:05:14.440Z,3.37
2022-12-23T04:07:47.826Z,3.40
2022-12-23T04:10:15.408Z,3.36
2022-12-23T04:12:42.855Z,3.45
2022-12-23T04:15:13.134Z,3.55
2022-12-23T04:17:40.301Z,3.51
2022-12-23T04:20:07.981Z,3.38
2022-12-23T04:22:34.743Z,3.38
2022-12-23T04:25:01.834Z,3.38
2022-12-23T04:27:28.645Z,3.39
2022-12-23T04:29:55.707Z,3.45
2022-12-23T04:32:22.535Z,3.38
2022-12-23T04:34:49.601Z,3.22
2022-12-23T04:37:16.473Z,3.27
2022-12-23T04:39:43.521Z,3.31
2022-12-23T04:42:10.542Z,3.36
2022-12-23T04:44:37.591Z,3.34
2022-12-23T04:47:04.630Z,3.21
2022-12-23T04:49:32.063Z,3.17
2022-12-23T04:51:58.984Z,3.07
2022-12-23T04:54:26.034Z,3.07
2022-12-23T04:56:52.901Z,2.95
2022-12-23T04:59:19.968Z,3.16
2022-12-23T05:01:46.954Z,3.32
2022-12-23T05:04:14.315Z,3.18
2022-12-23T05:06:41.236Z,3.23
2022-12-23T05:09:08.297Z,3.28
2022-12-23T05:11:41.737Z,3.16
2022-12-23T05:14:12.740Z,3.11
2022-12-23T05:16:39.830Z,3.02
2022-12-23T05:19:07.073Z,2.93
2022-12-23T05:21:33.872Z,2.89
2022-12-23T05:24:01.121Z,2.93
2022-12-23T05:26:28.019Z,2.97
2022-12-23T05:28:55.554Z,2.94
2022-12-23T05:31:22.497Z,2.91
2022-12-23T05:33:49.715Z,2.77
2022-12-23T05:36:16.724Z,2.79
2022-12-23T05:38:43.871Z,2.84
2022-12-23T05:41:10.700Z,2.89
2022-12-23T05:43:37.767Z,2.93
2022-12-23T05:46:04.995Z,2.78
2022-12-23T05:48:32.089Z,2.69
2022-12-23T05:50:58.953Z,2.79
2022-12-23T05:53:26.175Z,2.76
2022-12-23T05:55:53.012Z,2.85
2022-12-23T05:58:20.063Z,2.71
2022-12-23T06:00:46.996Z,2.63
2022-12-23T06:03:14.204Z,2.75
2022-12-23T06:05:43.592Z,2.71
2022-12-23T06:08:10.765Z,2.58
2022-12-23T06:10:37.576Z,2.51
2022-12-23T06:13:04.817Z,2.51
2022-12-23T06:15:31.640Z,2.57
2022-12-23T06:17:58.796Z,2.48
2022-12-23T06:20:25.596Z,2.43
2022-12-23T06:22:52.833Z,2.53
2022-12-23T06:25:20.721Z,2.46
2022-12-23T06:27:47.851Z,2.34
2022-12-23T06:30:14.845Z,2.38
2022-12-23T06:32:41.956Z,2.28
2022-12-23T06:35:09.452Z,2.31
2022-12-23T06:37:36.708Z,2.37
2022-12-23T06:40:03.949Z,2.39
2022-12-23T06:42:31.173Z,2.40
2022-12-23T06:44:58.005Z,2.40
2022-12-23T06:47:25.078Z,2.51
2022-12-23T06:49:51.860Z,2.43
2022-12-23T06:52:18.918Z,2.44
2022-12-23T06:54:45.726Z,2.62
2022-12-23T06:57:12.853Z,2.64
2022-12-23T06:59:39.699Z,2.58
2022-12-23T07:02:06.930Z,2.57
2022-12-23T07:04:33.835Z,2.56
2022-12-23T07:07:00.897Z,2.55
2022-12-23T07:09:27.914Z,2.42
2022-12-23T07:11:55.001Z,2.39
2022-12-23T07:14:21.843Z,2.39
2022-12-23T07:16:48.992Z,2.39
2022-12-23T07:19:15.747Z,2.27
2022-12-23T07:21:43.320Z,2.15
2022-12-23T07:24:10.298Z,2.20
2022-12-23T07:26:37.424Z,2.19
2022-12-23T07:29:04.658Z,2.14
2022-12-23T07:31:31.925Z,2.39
2022-12-23T07:33:58.794Z,2.32
2022-12-23T07:36:25.884Z,2.37
2022-12-23T07:38:52.717Z,2.39
2022-12-23T07:41:19.837Z,2.31
2022-12-23T07:43:46.932Z,2.48
2022-12-23T07:46:14.068Z,2.47
2022-12-23T07:48:43.853Z,2.44
2022-12-23T07:51:11.277Z,2.42
2022-12-23T07:53:38.388Z,2.40
2022-12-23T07:56:05.971Z,2.33
2022-12-23T07:58:32.749Z,2.39
2022-12-23T08:01:06.195Z,2.41
2022-12-23T08:03:33.126Z,2.46
2022-12-23T08:06:02.378Z,2.56
2022-12-23T08:08:29.380Z,2.53
2022-12-23T08:10:58.872Z,2.56
2022-12-23T08:13:25.658Z,2.59
2022-12-23T08:15:59.802Z,2.69
2022-12-23T08:18:26.932Z,2.66
2022-12-23T08:21:05.726Z,2.67
2022-12-23T08:23:33.477Z,2.63
2022-12-23T08:26:01.660Z,2.66
2022-12-23T08:28:28.987Z,2.56
2022-12-23T08:31:02.528Z,2.63
2022-12-23T08:33:29.389Z,2.71
2022-12-23T08:35:57.506Z,2.77
2022-12-23T08:38:24.335Z,2.50
2022-12-23T08:40:51.356Z,2.43
2022-12-23T08:43:18.198Z,2.29
2022-12-23T08:45:45.277Z,2.38
2022-12-23T08:48:12.894Z,2.52
2022-12-23T08:50:43.055Z,2.69
2022-12-23T08:53:10.721Z,2.73
2022-12-23T08:55:46.483Z,2.69
2022-12-23T08:58:14.944Z,2.82
2022-12-23T09:00:42.171Z,2.76
2022-12-23T09:03:09.157Z,2.78
2022-12-23T09:05:41.578Z,2.78
2022-12-23T09:08:09.295Z,2.79
2022-12-23T09:10:43.745Z,2.85
2022-12-23T09:13:13.895Z,2.88
2022-12-23T09:15:45.561Z,2.86
2022-12-23T09:18:12.524Z,2.82
2022-12-23T09:20:39.641Z,2.65
2022-12-23T09:23:06.809Z,2.74
2022-12-23T09:25:36.016Z,2.78
2022-12-23T09:28:04.009Z,2.79
2022-12-23T09:30:31.085Z,2.86
2022-12-23T09:32:57.878Z,2.89
2022-12-23T09:35:25.018Z,2.80
2022-12-23T09:37:51.805Z,2.77
2022-12-23T09:40:21.563Z,2.71
2022-12-23T09:43:33.613Z,2.82
2022-12-23T09:46:20.514Z,2.63
2022-12-23T09:48:56.707Z,2.58
2022-12-23T09:51:24.141Z,2.59
2022-12-23T09:54:11.995Z,2.66
2022-12-23T09:57:03.760Z,2.69
2022-12-23T10:00:07.702Z,2.55
2022-12-23T10:02:42.314Z,2.75
2022-12-23T10:05:15.257Z,2.81
2022-12-23T10:07:48.169Z,2.91
2022-12-23T10:10:32.987Z,2.66
2022-12-23T10:13:06.039Z,2.82
2022-12-23T10:15:47.668Z,2.84
2022-12-23T10:18:27.655Z,2.76
2022-12-23T10:21:03.014Z,2.67
2022-12-23T10:23:42.656Z,2.59
2022-12-23T10:26:32.356Z,2.71
2022-12-23T10:29:19.928Z,2.81
2022-12-23T10:32:24.587Z,2.99
2022-12-23T10:35:32.500Z,2.87
2022-12-23T10:38:02.186Z,2.71
2022-12-23T10:40:42.922Z,2.68
2022-12-23T10:43:37.957Z,2.68
2022-12-23T10:46:14.031Z,2.55
2022-12-23T10:48:58.883Z,2.74
2022-12-23T10:51:31.267Z,2.76
2022-12-23T10:54:06.933Z,2.94
2022-12-23T10:56:34.173Z,2.98
2022-12-23T10:59:01.671Z,3.03
2022-12-23T11:01:31.421Z,3.03
2022-12-23T11:04:17.197Z,2.87
2022-12-23T11:06:48.356Z,2.79
2022-12-23T11:09:20.909Z,2.82
2022-12-23T11:12:01.595Z,2.88
2022-12-23T11:14:46.750Z,2.81
2022-12-23T11:17:33.321Z,2.77
2022-12-23T11:20:20.237Z,2.82
2022-12-23T11:22:50.148Z,2.89
2022-12-23T11:25:40.403Z,3.11
2022-12-23T11:28:16.346Z,3.13
2022-12-23T11:31:08.673Z,3.27
2022-12-23T11:33:39.895Z,3.20
2022-12-23T11:36:13.671Z,3.17
2022-12-23T11:38:51.712Z,3.11
2022-12-23T11:41:22.364Z,3.16
2022-12-23T11:43:55.479Z,3.11
2022-12-23T11:46:30.870Z,3.01
2022-12-23T11:49:15.203Z,3.20
2022-12-23T11:51:48.043Z,3.24
2022-12-23T11:54:18.018Z,3.40
2022-12-23T11:56:47.846Z,3.45
2022-12-23T11:59:32.037Z,3.48
2022-12-23T12:02:20.257Z,3.62
2022-12-23T12:05:05.268Z,3.66
2022-12-23T12:07:33.312Z,3.71
2022-12-23T12:10:01.474Z,3.49
2022-12-23T12:12:29.609Z,3.41
2022-12-23T12:14:58.856Z,3.38
2022-12-23T12:17:34.244Z,3.54
2022-12-23T12:20:23.004Z,3.40
2022-12-23T12:22:56.460Z,3.65
2022-12-23T12:25:42.602Z,3.75
2022-12-23T12:28:14.815Z,3.81
2022-12-23T12:31:09.518Z,3.85
2022-12-23T12:33:43.196Z,4.01
2022-12-23T12:36:15.255Z,3.97
2022-12-23T12:38:43.284Z,3.79
2022-12-23T12:41:23.361Z,3.73
2022-12-23T12:44:03.604Z,3.55
2022-12-23T12:46:32.855Z,3.51
2022-12-23T12:49:06.928Z,3.68
2022-12-23T12:51:43.335Z,3.77
2022-12-23T12:54:22.440Z,3.79
2022-12-23T12:56:55.505Z,3.93
2022-12-23T12:59:27.686Z,3.92
2022-12-23T13:02:09.696Z,3.97
2022-12-23T13:04:36.454Z,4.17
2022-12-23T13:07:19.028Z,4.21
2022-12-23T13:09:48.738Z,4.12
2022-12-23T13:12:46.281Z,4.04
2022-12-23T13:15:27.223Z,4.12
2022-12-23T13:18:13.547Z,4.23
2022-12-23T13:20:50.085Z,4.27
2022-12-23T13:23:42.917Z,4.20
2022-12-23T13:26:30.712Z,4.11
2022-12-23T13:29:05.114Z,4.17
2022-12-23T13:31:48.731Z,4.28
2022-12-23T13:34:47.941Z,4.24
2022-12-23T13:37:33.236Z,4.37
2022-12-23T13:40:09.838Z,4.41
2022-12-23T13:42:43.982Z,4.37
2022-12-23T13:45:17.303Z,4.37
2022-12-23T13:47:52.985Z,4.38
2022-12-23T13:50:31.926Z,4.24
2022-12-23T13:53:39.460Z,4.33
2022-12-23T13:56:15.692Z,4.25
2022-12-23T13:58:47.132Z,4.26
2022-12-23T14:01:14.187Z,4.25
2022-12-23T14:03:41.545Z,4.31
2022-12-23T14:06:43.679Z,4.31
2022-12-23T14:09:15.446Z,4.31
2022-12-23T14:11:45.046Z,4.31
2022-12-23T14:15:01.925Z,4.38
2022-12-23T14:17:45.433Z,4.53
2022-12-23T14:20:34.833Z,4.51
2022-12-23T14:23:34.951Z,4.41
2022-12-23T14:26:31.071Z,4.34
2022-12-23T14:29:06.578Z,4.36
2022-12-23T14:31:41.463Z,4.31
2022-12-23T14:34:17.521Z,4.35
2022-12-23T14:37:20.425Z,4.34
2022-12-23T14:39:49.022Z,4.34
2022-12-23T14:42:33.188Z,4.37
2022-12-23T14:45:28.056Z,4.39
2022-12-23T14:47:54.920Z,4.44
2022-12-23T14:50:38.604Z,4.49
2022-12-23T14:53:23.250Z,4.53
2022-12-23T14:56:09.590Z,4.53
2022-12-23T14:58:51.918Z,4.57
2022-12-23T15:02:00.454Z,4.54
2022-12-23T15:04:50.507Z,4.66
2022-12-23T15:07:32.166Z,4.64
2022-12-23T15:10:02.044Z,4.58
2022-12-23T15:12:41.136Z,4.49
2022-12-23T15:15:18.196Z,4.51
2022-12-23T15:17:45.960Z,4.50
2022-12-23T15:20:21.966Z,4.44
2022-12-23T15:22:50.380Z,4.55
2022-12-23T15:25:19.978Z,4.38
2022-12-23T15:27:47.354Z,4.30
2022-12-23T15:30:15.172Z,4.30
2022-12-23T15:32:44.398Z,4.35
2022-12-23T15:35:19.353Z,4.33
2022-12-23T15:37:50.110Z,4.37
2022-12-23T15:40:24.419Z,4.43
2022-12-23T15:42:51.617Z,4.34
2022-12-23T15:45:44.807Z,4.70
2022-12-23T15:48:31.014Z,4.60
2022-12-23T15:51:05.677Z,4.48
2022-12-23T15:53:40.377Z,4.48
2022-12-23T15:56:19.959Z,4.47
2022-12-23T15:58:47.600Z,4.45
2022-12-23T16:01:17.645Z,4.47
2022-12-23T16:03:52.059Z,4.50
2022-12-23T16:06:18.945Z,4.48
2022-12-23T16:09:17.152Z,4.48
2022-12-23T16:12:04.249Z,4.51
2022-12-23T16:14:35.020Z,4.52
2022-12-23T16:17:14.186Z,4.50
2022-12-23T16:19:46.225Z,4.48
2022-12-23T16:22:30.483Z,4.53
2022-12-23T16:25:06.240Z,4.54
2022-12-23T16:27:42.706Z,4.55
2022-12-23T16:30:41.930Z,4.53
2022-12-23T16:33:36.026Z,4.53
2022-12-23T16:36:24.780Z,4.55
2022-12-23T16:38:59.896Z,4.54
2022-12-23T16:41:26.995Z,4.51
2022-12-23T16:43:53.860Z,4.50
2022-12-23T16:46:23.358Z,4.64
2022-12-23T16:49:04.596Z,4.64
2022-12-23T16:51:34.336Z,4.62
2022-12-23T16:54:02.089Z,4.53
2022-12-23T16:56:37.257Z,4.49
2022-12-23T16:59:05.254Z,4.46
2022-12-23T17:01:35.115Z,4.50
2022-12-23T17:04:02.373Z,4.47
2022-12-23T17:06:30.660Z,4.50
2022-12-23T17:08:57.794Z,4.49
2022-12-23T17:11:24.816Z,4.50
2022-12-23T17:13:52.899Z,4.50
2022-12-23T17:16:24.444Z,4.59
2022-12-23T17:18:53.082Z,4.55
2022-12-23T17:21:33.089Z,4.54
2022-12-23T17:24:26.808Z,4.57
2022-12-23T17:26:55.283Z,4.53
2022-12-23T17:29:22.465Z,4.49
2022-12-23T17:31:50.792Z,4.46
2022-12-23T17:34:23.069Z,4.47
2022-12-23T17:36:51.129Z,4.47
2022-12-23T17:39:19.185Z,4.46
2022-12-23T17:41:46.608Z,4.42
2022-12-23T17:44:15.254Z,4.46
2022-12-23T17:46:42.568Z,4.40
2022-12-23T17:49:09.470Z,4.30
2022-12-23T17:51:39.349Z,4.28
2022-12-23T17:54:06.691Z,4.43
2022-12-23T17:56:33.824Z,4.41
2022-12-23T17:59:00.647Z,4.42
2022-12-23T18:01:30.683Z,4.44
2022-12-23T18:03:59.578Z,4.46
2022-12-23T18:06:28.711Z,4.40
2022-12-23T18:08:58.704Z,4.29
2022-12-23T18:11:39.072Z,4.24
2022-12-23T18:14:13.112Z,4.19
2022-12-23T18:16:40.190Z,4.25
2022-12-23T18:19:16.448Z,4.23
2022-12-23T18:21:43.770Z,4.20
2022-12-23T18:24:11.031Z,4.17
2022-12-23T18:26:38.173Z,4.25
2022-12-23T18:29:04.981Z,4.22
2022-12-23T18:31:32.553Z,4.21
2022-12-23T18:34:00.079Z,4.25
2022-12-23T18:36:33.280Z,4.27
2022-12-23T18:39:00.364Z,4.27
2022-12-23T18:41:28.032Z,4.27
2022-12-23T18:43:55.369Z,4.30
2022-12-23T18:46:22.749Z,4.32
2022-12-23T18:48:49.706Z,4.33
2022-12-23T18:51:19.401Z,4.34
2022-12-23T18:53:47.589Z,4.26
2022-12-23T18:56:17.137Z,4.28
2022-12-23T18:58:43.942Z,4.20
2022-12-23T19:01:12.847Z,4.18
2022-12-23T19:03:40.314Z,4.20
2022-12-23T19:06:08.871Z,4.18
2022-12-23T19:08:37.261Z,4.18
2022-12-23T19:11:17.241Z,4.17
2022-12-23T19:13:44.726Z,4.18
2022-12-23T19:16:15.230Z,4.20
2022-12-23T19:18:42.363Z,4.22
2022-12-23T19:21:10.730Z,4.19
2022-12-23T19:23:39.831Z,4.17
2022-12-23T19:26:09.354Z,4.16
2022-12-23T19:28:41.387Z,4.16
2022-12-23T19:31:11.094Z,4.15
2022-12-23T19:33:42.485Z,4.22
2022-12-23T19:36:17.036Z,4.18
2022-12-23T19:38:44.191Z,4.19
2022-12-23T19:41:14.401Z,4.17
2022-12-23T19:43:44.591Z,4.19
2022-12-23T19:46:13.092Z,4.18
2022-12-23T19:48:40.220Z,4.17
2022-12-23T19:51:10.179Z,4.20
2022-12-23T19:53:37.385Z,4.20
2022-12-23T19:56:06.877Z,4.18
2022-12-23T19:58:36.668Z,4.18
2022-12-23T20:01:11.626Z,4.23
2022-12-23T20:03:39.675Z,4.20
2022-12-23T20:06:12.287Z,4.21
2022-12-23T20:08:39.225Z,4.20
2022-12-23T20:11:08.435Z,4.21
2022-12-23T20:13:36.058Z,4.25
2022-12-23T20:16:03.928Z,4.38
2022-12-23T20:18:31.191Z,4.46
2022-12-23T20:20:58.725Z,4.48
2022-12-23T20:23:25.565Z,4.47
2022-12-23T20:25:52.745Z,4.27
2022-12-23T20:28:19.662Z,4.05
2022-12-23T20:30:48.344Z,4.21
2022-12-23T20:33:16.048Z,4.16
2022-12-23T20:35:43.160Z,4.21
2022-12-23T20:38:09.949Z,4.10
2022-12-23T20:40:37.031Z,4.05
2022-12-23T20:43:04.117Z,4.03
2022-12-23T20:45:31.279Z,4.05
2022-12-23T20:47:58.046Z,4.11
2022-12-23T20:50:25.101Z,4.11
2022-12-23T20:52:51.892Z,4.09
2022-12-23T20:55:18.988Z,4.12
2022-12-23T20:57:45.814Z,4.08
2022-12-23T21:00:13.525Z,4.09
2022-12-23T21:02:40.940Z,4.16
2022-12-23T21:05:08.553Z,4.11
2022-12-23T21:07:35.671Z,4.19
2022-12-23T21:10:03.352Z,4.20
2022-12-23T21:12:30.333Z,4.19
2022-12-23T21:14:57.450Z,4.19
2022-12-23T21:17:24.241Z,4.19
2022-12-23T21:19:51.369Z,4.17
2022-12-23T21:22:18.168Z,4.13
2022-12-23T21:24:45.235Z,4.14
2022-12-23T21:27:12.027Z,4.13
2022-12-23T21:29:39.157Z,4.12
2022-12-23T21:32:05.921Z,4.20
2022-12-23T21:34:32.988Z,4.15
2022-12-23T21:36:59.787Z,4.08
2022-12-23T21:39:27.346Z,4.03
2022-12-23T21:41:54.608Z,4.04
2022-12-23T21:44:21.728Z,4.00
2022-12-23T21:46:50.303Z,3.97
2022-12-23T21:49:18.146Z,3.99
2022-12-23T21:51:45.027Z,4.00
2022-12-23T21:54:12.769Z,3.98
2022-12-23T21:56:40.423Z,4.00
2022-12-23T21:59:16.332Z,4.05
2022-12-23T22:01:43.505Z,3.95
2022-12-23T22:04:10.961Z,3.94
2022-12-23T22:06:43.537Z,3.94
2022-12-23T22:09:13.353Z,3.85
2022-12-23T22:11:40.267Z,3.92
2022-12-23T22:14:10.346Z,3.93
2022-12-23T22:16:37.261Z,3.92
2022-12-23T22:19:06.234Z,4.14
2022-12-23T22:21:34.326Z,4.29
2022-12-23T22:24:02.207Z,4.37
2022-12-23T22:26:31.694Z,4.12
2022-12-23T22:29:01.296Z,4.03
2022-12-23T22:31:37.459Z,3.99
2022-12-23T22:34:05.677Z,3.92
2022-12-23T22:36:33.330Z,4.00
2022-12-23T22:39:01.761Z,3.96
2022-12-23T22:41:30.159Z,4.01
2022-12-23T22:43:58.398Z,4.31
2022-12-23T22:46:26.369Z,4.36
2022-12-23T22:48:54.167Z,4.37
2022-12-23T22:51:23.595Z,4.22
2022-12-23T22:53:50.667Z,4.14
2022-12-23T22:56:19.451Z,4.13
2022-12-23T22:58:47.284Z,4.12
2022-12-23T23:01:29.376Z,4.13
2022-12-23T23:03:59.310Z,3.94
2022-12-23T23:06:40.345Z,4.04
2022-12-23T23:09:10.160Z,4.04
2022-12-23T23:11:37.031Z,4.00
2022-12-23T23:14:04.647Z,4.08
2022-12-23T23:16:31.839Z,4.12
2022-12-23T23:18:59.963Z,4.37
2022-12-23T23:21:26.857Z,4.43
2022-12-23T23:23:54.024Z,4.18
2022-12-23T23:26:21.362Z,4.17
2022-12-23T23:28:48.881Z,4.19
2022-12-23T23:34:02.722Z,4.33
2022-12-23T23:36:29.608Z,4.31
2022-12-23T23:38:56.726Z,4.36
2022-12-23T23:41:24.272Z,4.35
2022-12-23T23:43:52.091Z,4.34
2022-12-23T23:46:19.179Z,4.33
2022-12-23T23:48:47.650Z,4.33
2022-12-23T23:51:14.625Z,4.32
2022-12-23T23:53:41.700Z,4.34
2022-12-23T23:56:09.328Z,4.31
2022-12-23T23:58:37.253Z,4.37
